sensor_id;sensor_type;location;lat;lon;timestamp;P1;durP1;ratioP1;P2;durP2;ratioP2
36715;SDS011;22699;51.034;3.730;2024-01-30T00:01:13;7.30;;;5.70;;
36715;SDS011;22699;51.034;3.730;2024-01-30T00:03:38;8.27;;;6.18;;
36715;SDS011;22699;51.034;3.730;2024-01-30T00:06:04;7.60;;;5.82;;
36715;SDS011;22699;51.034;3.730;2024-01-30T00:08:29;7.68;;;6.20;;
36715;SDS011;22699;51.034;3.730;2024-01-30T00:10:55;10.00;;;5.88;;
36715;SDS011;22699;51.034;3.730;2024-01-30T00:13:21;8.32;;;5.97;;
36715;SDS011;22699;51.034;3.730;2024-01-30T00:15:46;7.93;;;6.32;;
36715;SDS011;22699;51.034;3.730;2024-01-30T00:18:12;10.88;;;6.95;;
36715;SDS011;22699;51.034;3.730;2024-01-30T00:20:38;12.10;;;7.20;;
36715;SDS011;22699;51.034;3.730;2024-01-30T00:23:03;10.82;;;6.43;;
36715;SDS011;22699;51.034;3.730;2024-01-30T00:25:29;7.50;;;5.65;;
36715;SDS011;22699;51.034;3.730;2024-01-30T00:27:55;12.18;;;6.97;;
36715;SDS011;22699;51.034;3.730;2024-01-30T00:30:21;7.97;;;6.30;;
36715;SDS011;22699;51.034;3.730;2024-01-30T00:32:46;9.60;;;6.20;;
36715;SDS011;22699;51.034;3.730;2024-01-30T00:35:12;8.68;;;6.45;;
36715;SDS011;22699;51.034;3.730;2024-01-30T00:37:37;9.00;;;6.18;;
36715;SDS011;22699;51.034;3.730;2024-01-30T00:40:03;8.45;;;6.15;;
36715;SDS011;22699;51.034;3.730;2024-01-30T00:42:31;8.82;;;6.53;;
36715;SDS011;22699;51.034;3.730;2024-01-30T00:44:57;8.60;;;6.15;;
36715;SDS011;22699;51.034;3.730;2024-01-30T00:47:23;9.18;;;6.15;;
36715;SDS011;22699;51.034;3.730;2024-01-30T00:49:48;8.82;;;6.07;;
36715;SDS011;22699;51.034;3.730;2024-01-30T00:52:14;7.60;;;5.50;;
36715;SDS011;22699;51.034;3.730;2024-01-30T00:54:40;8.38;;;6.15;;
36715;SDS011;22699;51.034;3.730;2024-01-30T00:57:06;8.40;;;6.43;;
36715;SDS011;22699;51.034;3.730;2024-01-30T00:59:32;7.78;;;5.97;;
36715;SDS011;22699;51.034;3.730;2024-01-30T01:01:58;8.48;;;6.57;;
36715;SDS011;22699;51.034;3.730;2024-01-30T01:04:24;7.47;;;5.72;;
36715;SDS011;22699;51.034;3.730;2024-01-30T01:06:51;7.18;;;5.93;;
36715;SDS011;22699;51.034;3.730;2024-01-30T01:09:17;7.35;;;6.25;;
36715;SDS011;22699;51.034;3.730;2024-01-30T01:11:42;8.48;;;5.70;;
36715;SDS011;22699;51.034;3.730;2024-01-30T01:14:08;8.27;;;5.72;;
36715;SDS011;22699;51.034;3.730;2024-01-30T01:16:34;8.98;;;5.82;;
36715;SDS011;22699;51.034;3.730;2024-01-30T01:18:59;6.82;;;6.00;;
36715;SDS011;22699;51.034;3.730;2024-01-30T01:21:25;9.27;;;6.80;;
36715;SDS011;22699;51.034;3.730;2024-01-30T01:23:51;9.00;;;6.18;;
36715;SDS011;22699;51.034;3.730;2024-01-30T01:26:16;9.15;;;6.18;;
36715;SDS011;22699;51.034;3.730;2024-01-30T01:28:42;7.63;;;6.28;;
36715;SDS011;22699;51.034;3.730;2024-01-30T01:31:07;8.13;;;6.30;;
36715;SDS011;22699;51.034;3.730;2024-01-30T01:33:33;7.90;;;6.10;;
36715;SDS011;22699;51.034;3.730;2024-01-30T01:36:00;8.07;;;6.50;;
36715;SDS011;22699;51.034;3.730;2024-01-30T01:38:27;14.48;;;7.05;;
36715;SDS011;22699;51.034;3.730;2024-01-30T01:40:53;7.93;;;6.10;;
36715;SDS011;22699;51.034;3.730;2024-01-30T01:43:19;9.10;;;6.47;;
36715;SDS011;22699;51.034;3.730;2024-01-30T01:45:45;8.07;;;6.13;;
36715;SDS011;22699;51.034;3.730;2024-01-30T01:48:10;10.40;;;6.43;;
36715;SDS011;22699;51.034;3.730;2024-01-30T01:50:37;9.55;;;5.97;;
36715;SDS011;22699;51.034;3.730;2024-01-30T01:53:03;8.60;;;7.30;;
36715;SDS011;22699;51.034;3.730;2024-01-30T01:55:31;10.73;;;6.70;;
36715;SDS011;22699;51.034;3.730;2024-01-30T01:57:57;8.65;;;6.50;;
36715;SDS011;22699;51.034;3.730;2024-01-30T02:00:23;11.80;;;7.10;;
36715;SDS011;22699;51.034;3.730;2024-01-30T02:02:49;11.63;;;6.72;;
36715;SDS011;22699;51.034;3.730;2024-01-30T02:05:16;7.85;;;5.97;;
36715;SDS011;22699;51.034;3.730;2024-01-30T02:07:43;7.20;;;6.30;;
36715;SDS011;22699;51.034;3.730;2024-01-30T02:10:08;8.60;;;6.60;;
36715;SDS011;22699;51.034;3.730;2024-01-30T02:12:37;8.95;;;6.30;;
36715;SDS011;22699;51.034;3.730;2024-01-30T02:15:03;9.10;;;6.22;;
36715;SDS011;22699;51.034;3.730;2024-01-30T02:17:30;12.45;;;6.75;;
36715;SDS011;22699;51.034;3.730;2024-01-30T02:19:56;8.60;;;6.18;;
36715;SDS011;22699;51.034;3.730;2024-01-30T02:22:22;8.85;;;5.93;;
36715;SDS011;22699;51.034;3.730;2024-01-30T02:24:48;9.27;;;5.72;;
36715;SDS011;22699;51.034;3.730;2024-01-30T02:27:14;8.98;;;6.57;;
36715;SDS011;22699;51.034;3.730;2024-01-30T02:29:40;9.80;;;6.53;;
36715;SDS011;22699;51.034;3.730;2024-01-30T02:32:06;10.95;;;7.00;;
36715;SDS011;22699;51.034;3.730;2024-01-30T02:34:32;8.20;;;6.22;;
36715;SDS011;22699;51.034;3.730;2024-01-30T02:36:58;9.00;;;7.00;;
36715;SDS011;22699;51.034;3.730;2024-01-30T02:39:24;15.43;;;6.85;;
36715;SDS011;22699;51.034;3.730;2024-01-30T02:41:50;8.15;;;6.78;;
36715;SDS011;22699;51.034;3.730;2024-01-30T02:44:16;9.38;;;6.90;;
36715;SDS011;22699;51.034;3.730;2024-01-30T02:46:42;9.40;;;6.63;;
36715;SDS011;22699;51.034;3.730;2024-01-30T02:49:07;9.50;;;6.30;;
36715;SDS011;22699;51.034;3.730;2024-01-30T02:51:33;9.45;;;6.25;;
36715;SDS011;22699;51.034;3.730;2024-01-30T02:53:58;7.97;;;6.40;;
36715;SDS011;22699;51.034;3.730;2024-01-30T02:56:24;8.90;;;7.20;;
36715;SDS011;22699;51.034;3.730;2024-01-30T02:58:50;10.13;;;7.18;;
36715;SDS011;22699;51.034;3.730;2024-01-30T03:01:15;7.68;;;6.40;;
36715;SDS011;22699;51.034;3.730;2024-01-30T03:03:41;8.48;;;6.40;;
36715;SDS011;22699;51.034;3.730;2024-01-30T03:06:08;12.23;;;7.72;;
36715;SDS011;22699;51.034;3.730;2024-01-30T03:08:34;13.55;;;7.22;;
36715;SDS011;22699;51.034;3.730;2024-01-30T03:11:00;9.10;;;6.93;;
36715;SDS011;22699;51.034;3.730;2024-01-30T03:13:26;10.07;;;7.05;;
36715;SDS011;22699;51.034;3.730;2024-01-30T03:15:52;12.23;;;7.65;;
36715;SDS011;22699;51.034;3.730;2024-01-30T03:18:17;8.95;;;6.60;;
36715;SDS011;22699;51.034;3.730;2024-01-30T03:20:43;11.40;;;7.47;;
36715;SDS011;22699;51.034;3.730;2024-01-30T03:23:08;8.68;;;7.45;;
36715;SDS011;22699;51.034;3.730;2024-01-30T03:25:34;9.27;;;6.70;;
36715;SDS011;22699;51.034;3.730;2024-01-30T03:28:00;10.75;;;7.25;;
36715;SDS011;22699;51.034;3.730;2024-01-30T03:30:25;8.50;;;6.65;;
36715;SDS011;22699;51.034;3.730;2024-01-30T03:32:51;10.15;;;7.00;;
36715;SDS011;22699;51.034;3.730;2024-01-30T03:35:18;10.95;;;7.53;;
36715;SDS011;22699;51.034;3.730;2024-01-30T03:37:44;12.10;;;6.45;;
36715;SDS011;22699;51.034;3.730;2024-01-30T03:40:10;10.85;;;6.55;;
36715;SDS011;22699;51.034;3.730;2024-01-30T03:42:36;9.63;;;6.40;;
36715;SDS011;22699;51.034;3.730;2024-01-30T03:45:01;9.50;;;7.40;;
36715;SDS011;22699;51.034;3.730;2024-01-30T03:47:27;7.55;;;6.72;;
36715;SDS011;22699;51.034;3.730;2024-01-30T03:49:53;9.23;;;6.57;;
36715;SDS011;22699;51.034;3.730;2024-01-30T03:52:18;11.27;;;7.20;;
36715;SDS011;22699;51.034;3.730;2024-01-30T03:54:44;11.15;;;7.40;;
36715;SDS011;22699;51.034;3.730;2024-01-30T03:57:10;8.48;;;7.22;;
36715;SDS011;22699;51.034;3.730;2024-01-30T03:59:36;10.43;;;6.90;;
36715;SDS011;22699;51.034;3.730;2024-01-30T04:02:01;9.63;;;7.85;;
36715;SDS011;22699;51.034;3.730;2024-01-30T04:04:27;10.32;;;7.53;;
36715;SDS011;22699;51.034;3.730;2024-01-30T04:06:53;10.50;;;7.20;;
36715;SDS011;22699;51.034;3.730;2024-01-30T04:09:18;8.38;;;6.57;;
36715;SDS011;22699;51.034;3.730;2024-01-30T04:11:44;11.07;;;6.72;;
36715;SDS011;22699;51.034;3.730;2024-01-30T04:14:10;10.57;;;6.90;;
36715;SDS011;22699;51.034;3.730;2024-01-30T04:16:36;12.98;;;8.00;;
36715;SDS011;22699;51.034;3.730;2024-01-30T04:19:01;9.32;;;6.93;;
36715;SDS011;22699;51.034;3.730;2024-01-30T04:21:27;10.60;;;7.45;;
36715;SDS011;22699;51.034;3.730;2024-01-30T04:23:53;10.40;;;7.53;;
36715;SDS011;22699;51.034;3.730;2024-01-30T04:26:18;12.20;;;7.35;;
36715;SDS011;22699;51.034;3.730;2024-01-30T04:28:44;13.60;;;7.93;;
36715;SDS011;22699;51.034;3.730;2024-01-30T04:31:10;10.27;;;7.57;;
36715;SDS011;22699;51.034;3.730;2024-01-30T04:33:36;11.52;;;8.02;;
36715;SDS011;22699;51.034;3.730;2024-01-30T04:36:02;12.05;;;8.07;;
36715;SDS011;22699;51.034;3.730;2024-01-30T04:38:28;13.85;;;8.15;;
36715;SDS011;22699;51.034;3.730;2024-01-30T04:40:54;13.38;;;8.63;;
36715;SDS011;22699;51.034;3.730;2024-01-30T04:43:20;9.93;;;7.57;;
36715;SDS011;22699;51.034;3.730;2024-01-30T04:45:46;12.80;;;7.28;;
36715;SDS011;22699;51.034;3.730;2024-01-30T04:48:12;9.25;;;7.32;;
36715;SDS011;22699;51.034;3.730;2024-01-30T04:50:37;11.38;;;7.68;;
36715;SDS011;22699;51.034;3.730;2024-01-30T04:53:03;9.57;;;7.25;;
36715;SDS011;22699;51.034;3.730;2024-01-30T04:55:29;9.95;;;7.45;;
36715;SDS011;22699;51.034;3.730;2024-01-30T04:57:54;10.02;;;7.50;;
36715;SDS011;22699;51.034;3.730;2024-01-30T05:00:20;10.07;;;7.60;;
36715;SDS011;22699;51.034;3.730;2024-01-30T05:02:45;9.75;;;7.32;;
36715;SDS011;22699;51.034;3.730;2024-01-30T05:05:11;12.10;;;7.28;;
36715;SDS011;22699;51.034;3.730;2024-01-30T05:07:36;10.77;;;7.45;;
36715;SDS011;22699;51.034;3.730;2024-01-30T05:10:02;10.02;;;6.18;;
36715;SDS011;22699;51.034;3.730;2024-01-30T05:12:28;9.68;;;7.10;;
36715;SDS011;22699;51.034;3.730;2024-01-30T05:14:54;13.65;;;8.35;;
36715;SDS011;22699;51.034;3.730;2024-01-30T05:17:19;9.18;;;7.45;;
36715;SDS011;22699;51.034;3.730;2024-01-30T05:19:45;12.48;;;8.65;;
36715;SDS011;22699;51.034;3.730;2024-01-30T05:22:11;12.32;;;9.15;;
36715;SDS011;22699;51.034;3.730;2024-01-30T05:24:40;12.82;;;8.55;;
36715;SDS011;22699;51.034;3.730;2024-01-30T05:27:08;11.02;;;7.70;;
36715;SDS011;22699;51.034;3.730;2024-01-30T05:29:34;11.57;;;8.00;;
36715;SDS011;22699;51.034;3.730;2024-01-30T05:32:00;12.88;;;8.70;;
36715;SDS011;22699;51.034;3.730;2024-01-30T05:34:25;14.57;;;9.00;;
36715;SDS011;22699;51.034;3.730;2024-01-30T05:36:51;15.80;;;8.70;;
36715;SDS011;22699;51.034;3.730;2024-01-30T05:39:16;12.38;;;8.25;;
36715;SDS011;22699;51.034;3.730;2024-01-30T05:41:42;10.63;;;7.75;;
36715;SDS011;22699;51.034;3.730;2024-01-30T05:44:07;11.40;;;7.32;;
36715;SDS011;22699;51.034;3.730;2024-01-30T05:46:35;11.38;;;7.35;;
36715;SDS011;22699;51.034;3.730;2024-01-30T05:49:00;10.63;;;7.15;;
36715;SDS011;22699;51.034;3.730;2024-01-30T05:51:26;9.98;;;6.47;;
36715;SDS011;22699;51.034;3.730;2024-01-30T05:53:53;10.52;;;6.78;;
36715;SDS011;22699;51.034;3.730;2024-01-30T05:56:19;9.00;;;7.15;;
36715;SDS011;22699;51.034;3.730;2024-01-30T05:58:44;10.98;;;7.32;;
36715;SDS011;22699;51.034;3.730;2024-01-30T06:01:10;9.32;;;6.47;;
36715;SDS011;22699;51.034;3.730;2024-01-30T06:03:36;10.32;;;7.43;;
36715;SDS011;22699;51.034;3.730;2024-01-30T06:06:01;11.10;;;7.35;;
36715;SDS011;22699;51.034;3.730;2024-01-30T06:08:27;9.50;;;7.22;;
36715;SDS011;22699;51.034;3.730;2024-01-30T06:10:53;9.15;;;6.22;;
36715;SDS011;22699;51.034;3.730;2024-01-30T06:13:19;7.93;;;7.05;;
36715;SDS011;22699;51.034;3.730;2024-01-30T06:15:45;11.13;;;7.07;;
36715;SDS011;22699;51.034;3.730;2024-01-30T06:18:11;10.45;;;7.30;;
36715;SDS011;22699;51.034;3.730;2024-01-30T06:20:36;10.52;;;6.93;;
36715;SDS011;22699;51.034;3.730;2024-01-30T06:23:02;10.75;;;7.82;;
36715;SDS011;22699;51.034;3.730;2024-01-30T06:25:28;10.10;;;6.72;;
36715;SDS011;22699;51.034;3.730;2024-01-30T06:27:53;9.40;;;6.78;;
36715;SDS011;22699;51.034;3.730;2024-01-30T06:30:19;10.65;;;7.15;;
36715;SDS011;22699;51.034;3.730;2024-01-30T06:32:45;10.07;;;7.03;;
36715;SDS011;22699;51.034;3.730;2024-01-30T06:35:10;12.00;;;6.75;;
36715;SDS011;22699;51.034;3.730;2024-01-30T06:37:36;9.55;;;7.72;;
36715;SDS011;22699;51.034;3.730;2024-01-30T06:40:02;13.10;;;8.60;;
36715;SDS011;22699;51.034;3.730;2024-01-30T06:42:29;8.57;;;6.93;;
36715;SDS011;22699;51.034;3.730;2024-01-30T06:44:55;10.32;;;6.55;;
36715;SDS011;22699;51.034;3.730;2024-01-30T06:47:21;8.65;;;6.63;;
36715;SDS011;22699;51.034;3.730;2024-01-30T06:49:46;12.70;;;7.55;;
36715;SDS011;22699;51.034;3.730;2024-01-30T06:52:12;8.25;;;6.63;;
36715;SDS011;22699;51.034;3.730;2024-01-30T06:54:38;10.48;;;7.18;;
36715;SDS011;22699;51.034;3.730;2024-01-30T06:57:04;11.25;;;7.13;;
36715;SDS011;22699;51.034;3.730;2024-01-30T06:59:33;10.25;;;7.90;;
36715;SDS011;22699;51.034;3.730;2024-01-30T07:01:59;15.63;;;8.18;;
36715;SDS011;22699;51.034;3.730;2024-01-30T07:04:25;10.00;;;7.47;;
36715;SDS011;22699;51.034;3.730;2024-01-30T07:06:51;12.52;;;7.80;;
36715;SDS011;22699;51.034;3.730;2024-01-30T07:09:18;12.95;;;7.80;;
36715;SDS011;22699;51.034;3.730;2024-01-30T07:11:44;13.13;;;8.65;;
36715;SDS011;22699;51.034;3.730;2024-01-30T07:14:09;10.82;;;7.50;;
36715;SDS011;22699;51.034;3.730;2024-01-30T07:16:35;11.00;;;7.38;;
36715;SDS011;22699;51.034;3.730;2024-01-30T07:19:01;14.30;;;7.35;;
36715;SDS011;22699;51.034;3.730;2024-01-30T07:21:27;11.90;;;7.28;;
36715;SDS011;22699;51.034;3.730;2024-01-30T07:23:56;10.93;;;7.20;;
36715;SDS011;22699;51.034;3.730;2024-01-30T07:26:22;11.27;;;6.45;;
36715;SDS011;22699;51.034;3.730;2024-01-30T07:28:48;10.82;;;6.63;;
36715;SDS011;22699;51.034;3.730;2024-01-30T07:31:15;12.65;;;7.90;;
36715;SDS011;22699;51.034;3.730;2024-01-30T07:33:40;9.27;;;7.18;;
36715;SDS011;22699;51.034;3.730;2024-01-30T07:36:06;10.45;;;7.38;;
36715;SDS011;22699;51.034;3.730;2024-01-30T07:38:32;9.75;;;7.47;;
36715;SDS011;22699;51.034;3.730;2024-01-30T07:40:57;18.10;;;7.30;;
36715;SDS011;22699;51.034;3.730;2024-01-30T07:43:23;18.38;;;8.02;;
36715;SDS011;22699;51.034;3.730;2024-01-30T07:45:49;11.73;;;7.68;;
36715;SDS011;22699;51.034;3.730;2024-01-30T07:48:14;11.55;;;7.18;;
36715;SDS011;22699;51.034;3.730;2024-01-30T07:50:40;9.45;;;7.15;;
36715;SDS011;22699;51.034;3.730;2024-01-30T07:53:06;12.05;;;7.90;;
36715;SDS011;22699;51.034;3.730;2024-01-30T07:55:31;10.50;;;7.30;;
36715;SDS011;22699;51.034;3.730;2024-01-30T07:57:57;10.60;;;7.45;;
36715;SDS011;22699;51.034;3.730;2024-01-30T08:00:26;12.88;;;7.72;;
36715;SDS011;22699;51.034;3.730;2024-01-30T08:02:54;15.30;;;8.02;;
36715;SDS011;22699;51.034;3.730;2024-01-30T08:05:20;12.85;;;7.50;;
36715;SDS011;22699;51.034;3.730;2024-01-30T08:07:47;11.10;;;7.88;;
36715;SDS011;22699;51.034;3.730;2024-01-30T08:10:14;11.02;;;7.72;;
36715;SDS011;22699;51.034;3.730;2024-01-30T08:12:40;11.38;;;7.45;;
36715;SDS011;22699;51.034;3.730;2024-01-30T08:15:06;12.15;;;7.50;;
36715;SDS011;22699;51.034;3.730;2024-01-30T08:17:32;18.02;;;9.20;;
36715;SDS011;22699;51.034;3.730;2024-01-30T08:19:58;10.57;;;7.63;;
36715;SDS011;22699;51.034;3.730;2024-01-30T08:22:23;14.23;;;8.57;;
36715;SDS011;22699;51.034;3.730;2024-01-30T08:24:49;10.52;;;7.78;;
36715;SDS011;22699;51.034;3.730;2024-01-30T08:27:15;10.00;;;7.72;;
36715;SDS011;22699;51.034;3.730;2024-01-30T08:29:40;15.65;;;8.90;;
36715;SDS011;22699;51.034;3.730;2024-01-30T08:32:06;14.68;;;8.45;;
36715;SDS011;22699;51.034;3.730;2024-01-30T08:34:32;14.43;;;8.35;;
36715;SDS011;22699;51.034;3.730;2024-01-30T08:36:58;15.77;;;8.48;;
36715;SDS011;22699;51.034;3.730;2024-01-30T08:39:23;12.02;;;9.10;;
36715;SDS011;22699;51.034;3.730;2024-01-30T08:41:49;13.70;;;8.93;;
36715;SDS011;22699;51.034;3.730;2024-01-30T08:44:15;14.18;;;9.13;;
36715;SDS011;22699;51.034;3.730;2024-01-30T08:46:41;13.63;;;8.70;;
36715;SDS011;22699;51.034;3.730;2024-01-30T08:49:07;14.95;;;8.13;;
36715;SDS011;22699;51.034;3.730;2024-01-30T08:51:33;13.55;;;7.97;;
36715;SDS011;22699;51.034;3.730;2024-01-30T08:53:58;11.15;;;7.68;;
36715;SDS011;22699;51.034;3.730;2024-01-30T08:56:25;11.20;;;6.32;;
36715;SDS011;22699;51.034;3.730;2024-01-30T08:58:50;11.70;;;7.65;;
36715;SDS011;22699;51.034;3.730;2024-01-30T09:01:16;12.50;;;7.13;;
36715;SDS011;22699;51.034;3.730;2024-01-30T09:03:42;11.90;;;7.50;;
36715;SDS011;22699;51.034;3.730;2024-01-30T09:06:10;19.52;;;8.23;;
36715;SDS011;22699;51.034;3.730;2024-01-30T09:08:36;9.00;;;7.22;;
36715;SDS011;22699;51.034;3.730;2024-01-30T09:11:08;11.68;;;7.35;;
36715;SDS011;22699;51.034;3.730;2024-01-30T09:13:40;13.82;;;6.90;;
36715;SDS011;22699;51.034;3.730;2024-01-30T09:16:06;11.30;;;6.82;;
36715;SDS011;22699;51.034;3.730;2024-01-30T09:18:32;9.75;;;6.82;;
36715;SDS011;22699;51.034;3.730;2024-01-30T09:20:58;12.15;;;6.20;;
36715;SDS011;22699;51.034;3.730;2024-01-30T09:23:23;14.23;;;5.00;;
36715;SDS011;22699;51.034;3.730;2024-01-30T09:25:50;9.32;;;4.50;;
36715;SDS011;22699;51.034;3.730;2024-01-30T09:28:17;9.90;;;3.53;;
36715;SDS011;22699;51.034;3.730;2024-01-30T09:30:42;10.15;;;3.58;;
36715;SDS011;22699;51.034;3.730;2024-01-30T09:33:08;11.80;;;3.60;;
36715;SDS011;22699;51.034;3.730;2024-01-30T09:35:34;9.27;;;3.50;;
36715;SDS011;22699;51.034;3.730;2024-01-30T09:38:01;13.05;;;3.13;;
36715;SDS011;22699;51.034;3.730;2024-01-30T09:40:27;10.88;;;3.17;;
36715;SDS011;22699;51.034;3.730;2024-01-30T09:42:53;4.78;;;2.17;;
36715;SDS011;22699;51.034;3.730;2024-01-30T09:45:21;6.07;;;2.35;;
36715;SDS011;22699;51.034;3.730;2024-01-30T09:47:49;12.20;;;2.15;;
36715;SDS011;22699;51.034;3.730;2024-01-30T09:50:15;6.30;;;2.38;;
36715;SDS011;22699;51.034;3.730;2024-01-30T09:52:42;5.22;;;1.85;;
36715;SDS011;22699;51.034;3.730;2024-01-30T09:55:09;6.88;;;2.55;;
36715;SDS011;22699;51.034;3.730;2024-01-30T09:57:35;4.28;;;2.42;;
36715;SDS011;22699;51.034;3.730;2024-01-30T10:00:01;9.32;;;2.53;;
36715;SDS011;22699;51.034;3.730;2024-01-30T10:02:29;5.55;;;1.88;;
36715;SDS011;22699;51.034;3.730;2024-01-30T10:04:56;4.25;;;2.20;;
36715;SDS011;22699;51.034;3.730;2024-01-30T10:07:23;2.53;;;0.93;;
36715;SDS011;22699;51.034;3.730;2024-01-30T10:09:48;4.47;;;1.25;;
36715;SDS011;22699;51.034;3.730;2024-01-30T10:12:15;2.92;;;0.98;;
36715;SDS011;22699;51.034;3.730;2024-01-30T10:14:41;2.40;;;1.45;;
36715;SDS011;22699;51.034;3.730;2024-01-30T10:17:07;1.98;;;0.60;;
36715;SDS011;22699;51.034;3.730;2024-01-30T10:19:34;3.80;;;0.63;;
36715;SDS011;22699;51.034;3.730;2024-01-30T10:22:00;2.08;;;0.77;;
36715;SDS011;22699;51.034;3.730;2024-01-30T10:24:26;3.92;;;0.70;;
36715;SDS011;22699;51.034;3.730;2024-01-30T10:26:54;2.60;;;0.60;;
36715;SDS011;22699;51.034;3.730;2024-01-30T10:29:20;2.53;;;0.65;;
36715;SDS011;22699;51.034;3.730;2024-01-30T10:31:45;3.72;;;0.90;;
36715;SDS011;22699;51.034;3.730;2024-01-30T10:34:12;2.50;;;0.70;;
36715;SDS011;22699;51.034;3.730;2024-01-30T10:36:41;7.78;;;1.15;;
36715;SDS011;22699;51.034;3.730;2024-01-30T10:39:11;3.30;;;1.42;;
36715;SDS011;22699;51.034;3.730;2024-01-30T10:41:42;2.40;;;1.20;;
36715;SDS011;22699;51.034;3.730;2024-01-30T10:44:09;5.70;;;1.45;;
36715;SDS011;22699;51.034;3.730;2024-01-30T10:46:37;3.03;;;1.25;;
36715;SDS011;22699;51.034;3.730;2024-01-30T10:49:04;8.70;;;1.60;;
36715;SDS011;22699;51.034;3.730;2024-01-30T10:51:31;4.63;;;1.42;;
36715;SDS011;22699;51.034;3.730;2024-01-30T10:53:57;2.40;;;1.10;;
36715;SDS011;22699;51.034;3.730;2024-01-30T10:56:23;6.68;;;1.50;;
36715;SDS011;22699;51.034;3.730;2024-01-30T10:58:50;7.32;;;1.27;;
36715;SDS011;22699;51.034;3.730;2024-01-30T11:01:18;5.68;;;1.10;;
36715;SDS011;22699;51.034;3.730;2024-01-30T11:03:49;7.35;;;1.10;;
36715;SDS011;22699;51.034;3.730;2024-01-30T11:06:16;4.70;;;1.20;;
36715;SDS011;22699;51.034;3.730;2024-01-30T11:08:43;4.63;;;0.90;;
36715;SDS011;22699;51.034;3.730;2024-01-30T11:11:10;5.45;;;1.25;;
36715;SDS011;22699;51.034;3.730;2024-01-30T11:13:35;5.22;;;1.20;;
36715;SDS011;22699;51.034;3.730;2024-01-30T11:16:02;6.57;;;1.25;;
36715;SDS011;22699;51.034;3.730;2024-01-30T11:18:29;4.40;;;1.00;;
36715;SDS011;22699;51.034;3.730;2024-01-30T11:21:01;5.38;;;1.30;;
36715;SDS011;22699;51.034;3.730;2024-01-30T11:23:30;3.92;;;0.90;;
36715;SDS011;22699;51.034;3.730;2024-01-30T11:25:56;7.30;;;1.10;;
36715;SDS011;22699;51.034;3.730;2024-01-30T11:28:22;3.95;;;1.00;;
36715;SDS011;22699;51.034;3.730;2024-01-30T11:30:48;6.55;;;1.10;;
36715;SDS011;22699;51.034;3.730;2024-01-30T11:33:26;5.18;;;1.10;;
36715;SDS011;22699;51.034;3.730;2024-01-30T11:35:56;5.47;;;0.90;;
36715;SDS011;22699;51.034;3.730;2024-01-30T11:38:22;1.67;;;0.68;;
36715;SDS011;22699;51.034;3.730;2024-01-30T11:40:50;3.78;;;1.05;;
36715;SDS011;22699;51.034;3.730;2024-01-30T11:43:17;6.28;;;1.30;;
36715;SDS011;22699;51.034;3.730;2024-01-30T11:45:43;6.93;;;0.98;;
36715;SDS011;22699;51.034;3.730;2024-01-30T11:48:11;4.05;;;1.63;;
36715;SDS011;22699;51.034;3.730;2024-01-30T11:50:37;6.18;;;1.15;;
36715;SDS011;22699;51.034;3.730;2024-01-30T11:53:04;4.40;;;0.90;;
36715;SDS011;22699;51.034;3.730;2024-01-30T11:55:30;6.18;;;1.75;;
36715;SDS011;22699;51.034;3.730;2024-01-30T11:57:57;3.78;;;1.38;;
36715;SDS011;22699;51.034;3.730;2024-01-30T12:00:23;9.07;;;1.55;;
36715;SDS011;22699;51.034;3.730;2024-01-30T12:02:50;5.90;;;1.02;;
36715;SDS011;22699;51.034;3.730;2024-01-30T12:05:20;4.72;;;1.10;;
36715;SDS011;22699;51.034;3.730;2024-01-30T12:07:46;5.45;;;0.90;;
36715;SDS011;22699;51.034;3.730;2024-01-30T12:10:15;4.25;;;0.85;;
36715;SDS011;22699;51.034;3.730;2024-01-30T12:12:45;6.95;;;1.50;;
36715;SDS011;22699;51.034;3.730;2024-01-30T12:15:12;6.50;;;0.98;;
36715;SDS011;22699;51.034;3.730;2024-01-30T12:17:38;2.15;;;0.60;;
36715;SDS011;22699;51.034;3.730;2024-01-30T12:22:37;3.45;;;1.02;;
36715;SDS011;22699;51.034;3.730;2024-01-30T12:25:07;6.93;;;1.55;;
36715;SDS011;22699;51.034;3.730;2024-01-30T12:27:37;8.57;;;1.20;;
36715;SDS011;22699;51.034;3.730;2024-01-30T12:30:07;4.20;;;0.90;;
36715;SDS011;22699;51.034;3.730;2024-01-30T12:32:34;4.72;;;1.42;;
36715;SDS011;22699;51.034;3.730;2024-01-30T12:35:01;5.55;;;1.65;;
36715;SDS011;22699;51.034;3.730;2024-01-30T12:37:27;4.18;;;1.05;;
36715;SDS011;22699;51.034;3.730;2024-01-30T12:39:54;5.22;;;1.38;;
36715;SDS011;22699;51.034;3.730;2024-01-30T12:42:20;2.05;;;0.82;;
36715;SDS011;22699;51.034;3.730;2024-01-30T12:44:47;7.30;;;1.20;;
36715;SDS011;22699;51.034;3.730;2024-01-30T12:47:13;2.80;;;0.95;;
36715;SDS011;22699;51.034;3.730;2024-01-30T12:49:41;5.22;;;0.90;;
36715;SDS011;22699;51.034;3.730;2024-01-30T12:52:13;2.55;;;0.90;;
36715;SDS011;22699;51.034;3.730;2024-01-30T12:54:41;7.45;;;1.23;;
36715;SDS011;22699;51.034;3.730;2024-01-30T12:57:07;6.22;;;0.80;;
36715;SDS011;22699;51.034;3.730;2024-01-30T12:59:33;6.35;;;1.02;;
36715;SDS011;22699;51.034;3.730;2024-01-30T13:01:59;14.00;;;6.55;;
36715;SDS011;22699;51.034;3.730;2024-01-30T13:04:26;7.53;;;1.02;;
36715;SDS011;22699;51.034;3.730;2024-01-30T13:06:52;10.30;;;1.80;;
36715;SDS011;22699;51.034;3.730;2024-01-30T13:09:18;5.80;;;1.00;;
36715;SDS011;22699;51.034;3.730;2024-01-30T13:11:44;6.35;;;1.08;;
36715;SDS011;22699;51.034;3.730;2024-01-30T13:14:10;3.95;;;0.85;;
36715;SDS011;22699;51.034;3.730;2024-01-30T13:16:35;8.63;;;1.10;;
36715;SDS011;22699;51.034;3.730;2024-01-30T13:19:01;4.25;;;1.17;;
36715;SDS011;22699;51.034;3.730;2024-01-30T13:21:27;7.70;;;1.25;;
36715;SDS011;22699;51.034;3.730;2024-01-30T13:23:53;7.32;;;1.50;;
36715;SDS011;22699;51.034;3.730;2024-01-30T13:26:19;4.45;;;1.08;;
36715;SDS011;22699;51.034;3.730;2024-01-30T13:28:46;8.75;;;1.17;;
36715;SDS011;22699;51.034;3.730;2024-01-30T13:31:12;5.63;;;1.15;;
36715;SDS011;22699;51.034;3.730;2024-01-30T13:33:38;4.57;;;1.10;;
36715;SDS011;22699;51.034;3.730;2024-01-30T13:36:04;7.78;;;1.60;;
36715;SDS011;22699;51.034;3.730;2024-01-30T13:38:30;5.93;;;1.30;;
36715;SDS011;22699;51.034;3.730;2024-01-30T13:40:55;6.03;;;1.33;;
36715;SDS011;22699;51.034;3.730;2024-01-30T13:43:21;9.38;;;1.73;;
36715;SDS011;22699;51.034;3.730;2024-01-30T13:45:47;8.57;;;1.70;;
36715;SDS011;22699;51.034;3.730;2024-01-30T13:48:12;4.55;;;1.33;;
36715;SDS011;22699;51.034;3.730;2024-01-30T13:50:38;3.95;;;1.50;;
36715;SDS011;22699;51.034;3.730;2024-01-30T13:53:04;9.70;;;1.85;;
36715;SDS011;22699;51.034;3.730;2024-01-30T13:55:29;5.28;;;1.65;;
36715;SDS011;22699;51.034;3.730;2024-01-30T13:57:55;6.32;;;1.27;;
36715;SDS011;22699;51.034;3.730;2024-01-30T14:00:21;4.95;;;1.20;;
36715;SDS011;22699;51.034;3.730;2024-01-30T14:02:48;5.15;;;1.38;;
36715;SDS011;22699;51.034;3.730;2024-01-30T14:05:13;6.55;;;1.33;;
36715;SDS011;22699;51.034;3.730;2024-01-30T14:07:40;4.00;;;1.40;;
36715;SDS011;22699;51.034;3.730;2024-01-30T14:10:07;5.85;;;1.25;;
36715;SDS011;22699;51.034;3.730;2024-01-30T14:12:35;6.05;;;1.33;;
36715;SDS011;22699;51.034;3.730;2024-01-30T14:15:01;10.20;;;2.03;;
36715;SDS011;22699;51.034;3.730;2024-01-30T14:17:27;10.60;;;1.42;;
36715;SDS011;22699;51.034;3.730;2024-01-30T14:19:52;6.70;;;1.52;;
36715;SDS011;22699;51.034;3.730;2024-01-30T14:22:18;9.90;;;2.63;;
36715;SDS011;22699;51.034;3.730;2024-01-30T14:24:44;7.82;;;1.67;;
36715;SDS011;22699;51.034;3.730;2024-01-30T14:27:09;3.97;;;1.08;;
36715;SDS011;22699;51.034;3.730;2024-01-30T14:29:35;7.72;;;1.83;;
36715;SDS011;22699;51.034;3.730;2024-01-30T14:32:01;6.22;;;1.73;;
36715;SDS011;22699;51.034;3.730;2024-01-30T14:34:29;8.18;;;2.00;;
36715;SDS011;22699;51.034;3.730;2024-01-30T14:36:54;5.50;;;1.63;;
36715;SDS011;22699;51.034;3.730;2024-01-30T14:39:20;4.70;;;2.10;;